sensor_id;sensor_type;location;lat;lon;timestamp;P1;durP1;ratioP1;P2;durP2;ratioP2
980;SDS011;479;53.514;9.994;2022-07-22T00:02:23;25.90;;;23.17;;
980;SDS011;479;53.514;9.994;2022-07-22T00:04:50;26.53;;;23.60;;
980;SDS011;479;53.514;9.994;2022-07-22T00:07:17;24.43;;;22.03;;
980;SDS011;479;53.514;9.994;2022-07-22T00:09:44;25.50;;;21.33;;
980;SDS011;479;53.514;9.994;2022-07-22T00:12:11;23.07;;;20.57;;
980;SDS011;479;53.514;9.994;2022-07-22T00:14:39;24.70;;;22.23;;
980;SDS011;479;53.514;9.994;2022-07-22T00:17:07;25.93;;;23.03;;
980;SDS011;479;53.514;9.994;2022-07-22T00:19:33;23.97;;;21.57;;
980;SDS011;479;53.514;9.994;2022-07-22T00:22:00;25.23;;;22.20;;
980;SDS011;479;53.514;9.994;2022-07-22T00:24:27;22.53;;;20.43;;
980;SDS011;479;53.514;9.994;2022-07-22T00:26:54;20.23;;;18.10;;
980;SDS011;479;53.514;9.994;2022-07-22T00:29:23;17.73;;;14.80;;
980;SDS011;479;53.514;9.994;2022-07-22T00:31:52;15.70;;;13.17;;
980;SDS011;479;53.514;9.994;2022-07-22T00:34:18;13.60;;;12.30;;
980;SDS011;479;53.514;9.994;2022-07-22T00:36:45;13.77;;;10.53;;
980;SDS011;479;53.514;9.994;2022-07-22T00:39:12;11.83;;;9.60;;
980;SDS011;479;53.514;9.994;2022-07-22T00:41:40;8.30;;;7.60;;
980;SDS011;479;53.514;9.994;2022-07-22T00:44:07;8.03;;;6.20;;
980;SDS011;479;53.514;9.994;2022-07-22T00:46:36;8.10;;;7.27;;
980;SDS011;479;53.514;9.994;2022-07-22T00:49:05;7.63;;;6.83;;
980;SDS011;479;53.514;9.994;2022-07-22T00:51:33;7.50;;;6.63;;
980;SDS011;479;53.514;9.994;2022-07-22T00:54:02;5.90;;;5.30;;
980;SDS011;479;53.514;9.994;2022-07-22T00:56:30;6.13;;;5.60;;
980;SDS011;479;53.514;9.994;2022-07-22T00:58:57;7.57;;;6.80;;
980;SDS011;479;53.514;9.994;2022-07-22T01:01:26;7.37;;;6.73;;
980;SDS011;479;53.514;9.994;2022-07-22T01:03:53;8.03;;;7.33;;
980;SDS011;479;53.514;9.994;2022-07-22T01:06:21;8.63;;;7.83;;
980;SDS011;479;53.514;9.994;2022-07-22T01:08:48;8.93;;;8.10;;
980;SDS011;479;53.514;9.994;2022-07-22T01:11:18;8.03;;;7.23;;
980;SDS011;479;53.514;9.994;2022-07-22T01:13:47;8.00;;;7.40;;
980;SDS011;479;53.514;9.994;2022-07-22T01:16:15;7.77;;;7.07;;
980;SDS011;479;53.514;9.994;2022-07-22T01:18:43;7.23;;;6.53;;
980;SDS011;479;53.514;9.994;2022-07-22T01:21:13;6.73;;;6.23;;
980;SDS011;479;53.514;9.994;2022-07-22T01:23:41;6.33;;;5.83;;
980;SDS011;479;53.514;9.994;2022-07-22T01:26:08;6.40;;;6.00;;
980;SDS011;479;53.514;9.994;2022-07-22T01:28:36;7.10;;;6.60;;
980;SDS011;479;53.514;9.994;2022-07-22T01:31:03;8.00;;;7.30;;
980;SDS011;479;53.514;9.994;2022-07-22T01:33:30;9.57;;;8.67;;
980;SDS011;479;53.514;9.994;2022-07-22T01:35:57;13.43;;;12.10;;
980;SDS011;479;53.514;9.994;2022-07-22T01:38:26;13.17;;;12.03;;
980;SDS011;479;53.514;9.994;2022-07-22T01:40:52;11.27;;;10.17;;
980;SDS011;479;53.514;9.994;2022-07-22T01:43:19;20.83;;;18.43;;
980;SDS011;479;53.514;9.994;2022-07-22T01:45:48;11.17;;;9.40;;
980;SDS011;479;53.514;9.994;2022-07-22T01:48:16;14.43;;;10.00;;
980;SDS011;479;53.514;9.994;2022-07-22T01:50:43;19.70;;;17.53;;
980;SDS011;479;53.514;9.994;2022-07-22T01:53:11;10.90;;;9.67;;
980;SDS011;479;53.514;9.994;2022-07-22T01:55:40;14.50;;;12.43;;
980;SDS011;479;53.514;9.994;2022-07-22T01:58:07;10.47;;;9.47;;
980;SDS011;479;53.514;9.994;2022-07-22T02:00:34;13.20;;;11.57;;
980;SDS011;479;53.514;9.994;2022-07-22T02:03:02;14.47;;;11.20;;
980;SDS011;479;53.514;9.994;2022-07-22T02:05:31;14.30;;;10.33;;
980;SDS011;479;53.514;9.994;2022-07-22T02:08:04;10.80;;;9.57;;
980;SDS011;479;53.514;9.994;2022-07-22T02:10:54;12.43;;;10.47;;
980;SDS011;479;53.514;9.994;2022-07-22T02:13:21;15.43;;;8.93;;
980;SDS011;479;53.514;9.994;2022-07-22T02:15:48;10.60;;;7.70;;
980;SDS011;479;53.514;9.994;2022-07-22T02:18:16;10.47;;;6.70;;
980;SDS011;479;53.514;9.994;2022-07-22T02:20:44;8.40;;;7.60;;
980;SDS011;479;53.514;9.994;2022-07-22T02:23:13;8.90;;;7.07;;
980;SDS011;479;53.514;9.994;2022-07-22T02:25:41;7.90;;;7.10;;
980;SDS011;479;53.514;9.994;2022-07-22T02:28:10;8.30;;;5.53;;
980;SDS011;479;53.514;9.994;2022-07-22T02:30:38;5.67;;;5.10;;
980;SDS011;479;53.514;9.994;2022-07-22T02:33:06;6.47;;;4.83;;
980;SDS011;479;53.514;9.994;2022-07-22T02:35:32;5.90;;;4.60;;
980;SDS011;479;53.514;9.994;2022-07-22T02:37:59;9.40;;;5.37;;
980;SDS011;479;53.514;9.994;2022-07-22T02:40:26;10.33;;;5.20;;
980;SDS011;479;53.514;9.994;2022-07-22T02:42:53;6.50;;;5.43;;
980;SDS011;479;53.514;9.994;2022-07-22T02:45:22;6.90;;;4.77;;
980;SDS011;479;53.514;9.994;2022-07-22T02:47:50;6.43;;;5.23;;
980;SDS011;479;53.514;9.994;2022-07-22T02:50:19;8.33;;;5.27;;
980;SDS011;479;53.514;9.994;2022-07-22T02:52:46;7.00;;;5.97;;
980;SDS011;479;53.514;9.994;2022-07-22T02:55:16;8.53;;;6.63;;
980;SDS011;479;53.514;9.994;2022-07-22T02:57:43;6.77;;;5.83;;
980;SDS011;479;53.514;9.994;2022-07-22T03:00:11;8.30;;;6.03;;
980;SDS011;479;53.514;9.994;2022-07-22T03:02:41;9.80;;;6.40;;
980;SDS011;479;53.514;9.994;2022-07-22T03:05:08;8.87;;;5.70;;
980;SDS011;479;53.514;9.994;2022-07-22T03:07:41;8.80;;;6.50;;
980;SDS011;479;53.514;9.994;2022-07-22T03:10:10;11.40;;;6.30;;
980;SDS011;479;53.514;9.994;2022-07-22T03:12:36;7.20;;;5.50;;
980;SDS011;479;53.514;9.994;2022-07-22T03:15:04;10.07;;;5.67;;
980;SDS011;479;53.514;9.994;2022-07-22T03:17:34;7.97;;;5.40;;
980;SDS011;479;53.514;9.994;2022-07-22T03:20:06;8.50;;;5.60;;
980;SDS011;479;53.514;9.994;2022-07-22T03:22:34;7.83;;;4.50;;
980;SDS011;479;53.514;9.994;2022-07-22T03:25:01;5.50;;;4.37;;
980;SDS011;479;53.514;9.994;2022-07-22T03:27:29;6.07;;;4.70;;
980;SDS011;479;53.514;9.994;2022-07-22T03:29:57;6.87;;;4.20;;
980;SDS011;479;53.514;9.994;2022-07-22T03:32:23;4.03;;;3.60;;
980;SDS011;479;53.514;9.994;2022-07-22T03:34:50;4.80;;;3.33;;
980;SDS011;479;53.514;9.994;2022-07-22T03:37:19;7.07;;;3.60;;
980;SDS011;479;53.514;9.994;2022-07-22T03:39:47;4.57;;;3.50;;
980;SDS011;479;53.514;9.994;2022-07-22T03:42:13;6.20;;;2.80;;
980;SDS011;479;53.514;9.994;2022-07-22T03:44:46;6.40;;;3.67;;
980;SDS011;479;53.514;9.994;2022-07-22T03:47:16;7.60;;;3.00;;
980;SDS011;479;53.514;9.994;2022-07-22T03:49:45;5.13;;;2.90;;
980;SDS011;479;53.514;9.994;2022-07-22T03:52:13;3.20;;;2.80;;
980;SDS011;479;53.514;9.994;2022-07-22T03:54:42;9.73;;;3.87;;
980;SDS011;479;53.514;9.994;2022-07-22T03:57:09;7.97;;;3.03;;
980;SDS011;479;53.514;9.994;2022-07-22T03:59:36;4.50;;;2.80;;
980;SDS011;479;53.514;9.994;2022-07-22T04:02:04;5.20;;;2.97;;
980;SDS011;479;53.514;9.994;2022-07-22T04:04:31;4.23;;;3.13;;
980;SDS011;479;53.514;9.994;2022-07-22T04:06:58;5.10;;;3.20;;
980;SDS011;479;53.514;9.994;2022-07-22T04:09:31;6.10;;;3.20;;
980;SDS011;479;53.514;9.994;2022-07-22T04:12:00;5.73;;;3.63;;
980;SDS011;479;53.514;9.994;2022-07-22T04:14:28;6.77;;;3.37;;
980;SDS011;479;53.514;9.994;2022-07-22T04:16:56;5.83;;;3.23;;
980;SDS011;479;53.514;9.994;2022-07-22T04:19:23;5.43;;;2.80;;
980;SDS011;479;53.514;9.994;2022-07-22T04:21:55;5.53;;;3.40;;
980;SDS011;479;53.514;9.994;2022-07-22T04:24:26;4.43;;;3.23;;
980;SDS011;479;53.514;9.994;2022-07-22T04:26:54;5.80;;;3.17;;
980;SDS011;479;53.514;9.994;2022-07-22T04:29:25;6.50;;;3.57;;
980;SDS011;479;53.514;9.994;2022-07-22T04:31:52;4.83;;;3.70;;
980;SDS011;479;53.514;9.994;2022-07-22T04:34:19;2.60;;;2.37;;
980;SDS011;479;53.514;9.994;2022-07-22T04:36:48;4.00;;;3.20;;
980;SDS011;479;53.514;9.994;2022-07-22T04:39:15;3.03;;;2.83;;
980;SDS011;479;53.514;9.994;2022-07-22T04:41:49;4.73;;;3.70;;
980;SDS011;479;53.514;9.994;2022-07-22T04:44:17;6.13;;;4.63;;
980;SDS011;479;53.514;9.994;2022-07-22T04:46:45;6.97;;;4.70;;
980;SDS011;479;53.514;9.994;2022-07-22T04:49:13;6.00;;;4.80;;
980;SDS011;479;53.514;9.994;2022-07-22T04:51:40;5.50;;;5.00;;
980;SDS011;479;53.514;9.994;2022-07-22T04:54:10;8.80;;;5.40;;
980;SDS011;479;53.514;9.994;2022-07-22T04:56:41;9.13;;;4.87;;
980;SDS011;479;53.514;9.994;2022-07-22T04:59:08;9.73;;;5.10;;
980;SDS011;479;53.514;9.994;2022-07-22T05:01:35;9.37;;;4.60;;
980;SDS011;479;53.514;9.994;2022-07-22T05:04:04;6.37;;;4.40;;
980;SDS011;479;53.514;9.994;2022-07-22T05:06:31;7.90;;;4.93;;
980;SDS011;479;53.514;9.994;2022-07-22T05:08:59;6.70;;;4.90;;
980;SDS011;479;53.514;9.994;2022-07-22T05:11:29;7.87;;;4.50;;
980;SDS011;479;53.514;9.994;2022-07-22T05:13:56;5.10;;;4.60;;
980;SDS011;479;53.514;9.994;2022-07-22T05:16:24;8.63;;;4.40;;
980;SDS011;479;53.514;9.994;2022-07-22T05:18:51;4.87;;;4.20;;
980;SDS011;479;53.514;9.994;2022-07-22T05:21:19;7.43;;;4.30;;
980;SDS011;479;53.514;9.994;2022-07-22T05:23:46;8.17;;;4.23;;
980;SDS011;479;53.514;9.994;2022-07-22T05:26:14;6.40;;;4.30;;
980;SDS011;479;53.514;9.994;2022-07-22T05:28:41;6.37;;;4.37;;
980;SDS011;479;53.514;9.994;2022-07-22T05:31:08;5.43;;;3.93;;
980;SDS011;479;53.514;9.994;2022-07-22T05:33:36;7.60;;;4.50;;
980;SDS011;479;53.514;9.994;2022-07-22T05:36:25;9.17;;;4.80;;
980;SDS011;479;53.514;9.994;2022-07-22T05:38:54;10.37;;;4.10;;
980;SDS011;479;53.514;9.994;2022-07-22T05:41:21;7.53;;;4.10;;
980;SDS011;479;53.514;9.994;2022-07-22T05:43:48;7.57;;;4.60;;
980;SDS011;479;53.514;9.994;2022-07-22T05:46:15;5.33;;;4.40;;
980;SDS011;479;53.514;9.994;2022-07-22T05:48:42;5.83;;;4.37;;
980;SDS011;479;53.514;9.994;2022-07-22T05:51:12;6.50;;;4.67;;
980;SDS011;479;53.514;9.994;2022-07-22T05:53:41;5.97;;;4.23;;
980;SDS011;479;53.514;9.994;2022-07-22T05:56:10;6.63;;;4.37;;
980;SDS011;479;53.514;9.994;2022-07-22T05:58:37;11.83;;;4.60;;
980;SDS011;479;53.514;9.994;2022-07-22T06:01:05;7.80;;;4.90;;
980;SDS011;479;53.514;9.994;2022-07-22T06:03:32;4.50;;;4.00;;
980;SDS011;479;53.514;9.994;2022-07-22T06:05:59;9.03;;;3.90;;
980;SDS011;479;53.514;9.994;2022-07-22T06:08:27;5.43;;;4.20;;
980;SDS011;479;53.514;9.994;2022-07-22T06:10:56;11.37;;;4.17;;
980;SDS011;479;53.514;9.994;2022-07-22T06:13:24;5.70;;;3.80;;
980;SDS011;479;53.514;9.994;2022-07-22T06:15:51;7.83;;;3.90;;
980;SDS011;479;53.514;9.994;2022-07-22T06:18:18;10.10;;;4.50;;
980;SDS011;479;53.514;9.994;2022-07-22T06:20:45;6.60;;;3.70;;
980;SDS011;479;53.514;9.994;2022-07-22T06:23:12;10.10;;;4.60;;
980;SDS011;479;53.514;9.994;2022-07-22T06:25:39;8.43;;;4.57;;
980;SDS011;479;53.514;9.994;2022-07-22T06:28:09;5.77;;;3.53;;
980;SDS011;479;53.514;9.994;2022-07-22T06:30:37;9.63;;;4.87;;
980;SDS011;479;53.514;9.994;2022-07-22T06:33:04;12.17;;;5.20;;
980;SDS011;479;53.514;9.994;2022-07-22T06:35:31;8.30;;;4.47;;
980;SDS011;479;53.514;9.994;2022-07-22T06:37:59;13.10;;;4.30;;
980;SDS011;479;53.514;9.994;2022-07-22T06:40:27;11.03;;;4.50;;
980;SDS011;479;53.514;9.994;2022-07-22T06:43:11;9.33;;;3.93;;
980;SDS011;479;53.514;9.994;2022-07-22T06:45:57;7.47;;;3.63;;
980;SDS011;479;53.514;9.994;2022-07-22T06:48:31;6.30;;;4.40;;
980;SDS011;479;53.514;9.994;2022-07-22T06:50:58;7.80;;;4.30;;
980;SDS011;479;53.514;9.994;2022-07-22T06:53:25;8.10;;;3.60;;
980;SDS011;479;53.514;9.994;2022-07-22T06:55:52;6.97;;;3.27;;
980;SDS011;479;53.514;9.994;2022-07-22T06:58:20;7.10;;;3.33;;
980;SDS011;479;53.514;9.994;2022-07-22T07:00:47;6.60;;;3.60;;
980;SDS011;479;53.514;9.994;2022-07-22T07:03:23;4.67;;;3.27;;
980;SDS011;479;53.514;9.994;2022-07-22T07:05:53;7.93;;;3.97;;
980;SDS011;479;53.514;9.994;2022-07-22T07:08:20;7.60;;;4.50;;
980;SDS011;479;53.514;9.994;2022-07-22T07:10:47;9.43;;;3.40;;
980;SDS011;479;53.514;9.994;2022-07-22T07:13:14;9.47;;;4.10;;
980;SDS011;479;53.514;9.994;2022-07-22T07:15:44;6.70;;;3.30;;
980;SDS011;479;53.514;9.994;2022-07-22T07:18:12;7.20;;;2.93;;
980;SDS011;479;53.514;9.994;2022-07-22T07:20:39;10.77;;;3.80;;
980;SDS011;479;53.514;9.994;2022-07-22T07:23:08;4.83;;;3.80;;
980;SDS011;479;53.514;9.994;2022-07-22T07:25:40;7.80;;;3.67;;
980;SDS011;479;53.514;9.994;2022-07-22T07:28:07;12.60;;;3.67;;
980;SDS011;479;53.514;9.994;2022-07-22T07:30:52;4.23;;;3.77;;
980;SDS011;479;53.514;9.994;2022-07-22T07:33:20;5.60;;;3.20;;
980;SDS011;479;53.514;9.994;2022-07-22T07:35:47;9.33;;;3.37;;
980;SDS011;479;53.514;9.994;2022-07-22T07:38:19;7.20;;;4.00;;
980;SDS011;479;53.514;9.994;2022-07-22T07:40:46;9.67;;;4.30;;
980;SDS011;479;53.514;9.994;2022-07-22T07:43:13;4.13;;;3.10;;
980;SDS011;479;53.514;9.994;2022-07-22T07:45:40;8.80;;;3.97;;
980;SDS011;479;53.514;9.994;2022-07-22T07:48:08;6.77;;;2.67;;
980;SDS011;479;53.514;9.994;2022-07-22T07:50:37;11.43;;;4.73;;
980;SDS011;479;53.514;9.994;2022-07-22T07:53:04;13.90;;;3.90;;
980;SDS011;479;53.514;9.994;2022-07-22T07:55:32;8.13;;;3.17;;
980;SDS011;479;53.514;9.994;2022-07-22T07:58:01;6.63;;;3.60;;
980;SDS011;479;53.514;9.994;2022-07-22T08:00:28;8.23;;;4.33;;
980;SDS011;479;53.514;9.994;2022-07-22T08:02:57;9.07;;;3.80;;
980;SDS011;479;53.514;9.994;2022-07-22T08:05:27;5.47;;;3.17;;
980;SDS011;479;53.514;9.994;2022-07-22T08:07:54;7.03;;;3.33;;
980;SDS011;479;53.514;9.994;2022-07-22T08:10:22;9.10;;;3.60;;
980;SDS011;479;53.514;9.994;2022-07-22T08:13:00;12.83;;;3.43;;
980;SDS011;479;53.514;9.994;2022-07-22T08:15:48;5.90;;;3.70;;
980;SDS011;479;53.514;9.994;2022-07-22T08:18:21;8.13;;;3.60;;
980;SDS011;479;53.514;9.994;2022-07-22T08:20:49;5.13;;;3.33;;
980;SDS011;479;53.514;9.994;2022-07-22T08:23:18;6.03;;;3.40;;
980;SDS011;479;53.514;9.994;2022-07-22T08:25:46;8.13;;;4.40;;
980;SDS011;479;53.514;9.994;2022-07-22T08:28:13;8.97;;;3.47;;
980;SDS011;479;53.514;9.994;2022-07-22T08:30:40;7.10;;;2.90;;
980;SDS011;479;53.514;9.994;2022-07-22T08:33:07;10.73;;;3.60;;
980;SDS011;479;53.514;9.994;2022-07-22T08:35:36;5.43;;;3.23;;
980;SDS011;479;53.514;9.994;2022-07-22T08:38:04;31.20;;;26.03;;
980;SDS011;479;53.514;9.994;2022-07-22T08:40:32;9.97;;;7.97;;
980;SDS011;479;53.514;9.994;2022-07-22T08:43:01;14.93;;;13.33;;
980;SDS011;479;53.514;9.994;2022-07-22T08:45:30;15.50;;;10.43;;
980;SDS011;479;53.514;9.994;2022-07-22T08:47:57;7.80;;;6.30;;
980;SDS011;479;53.514;9.994;2022-07-22T08:50:40;11.07;;;7.40;;
980;SDS011;479;53.514;9.994;2022-07-22T08:53:38;27.97;;;25.00;;
980;SDS011;479;53.514;9.994;2022-07-22T08:56:13;15.57;;;6.57;;
980;SDS011;479;53.514;9.994;2022-07-22T08:58:40;6.50;;;2.73;;
980;SDS011;479;53.514;9.994;2022-07-22T09:01:08;9.27;;;3.23;;
980;SDS011;479;53.514;9.994;2022-07-22T09:03:43;7.93;;;3.20;;
980;SDS011;479;53.514;9.994;2022-07-22T09:06:12;8.17;;;4.27;;
980;SDS011;479;53.514;9.994;2022-07-22T09:08:54;6.43;;;4.30;;
980;SDS011;479;53.514;9.994;2022-07-22T09:11:40;6.03;;;3.03;;
980;SDS011;479;53.514;9.994;2022-07-22T09:14:26;12.90;;;10.57;;
980;SDS011;479;53.514;9.994;2022-07-22T09:17:08;16.73;;;14.90;;
980;SDS011;479;53.514;9.994;2022-07-22T09:20:14;16.60;;;5.90;;
980;SDS011;479;53.514;9.994;2022-07-22T09:23:03;13.00;;;10.07;;
980;SDS011;479;53.514;9.994;2022-07-22T09:25:40;7.03;;;5.40;;
980;SDS011;479;53.514;9.994;2022-07-22T09:28:25;15.43;;;10.80;;
980;SDS011;479;53.514;9.994;2022-07-22T09:31:23;7.80;;;4.77;;
980;SDS011;479;53.514;9.994;2022-07-22T09:33:53;6.17;;;3.50;;
980;SDS011;479;53.514;9.994;2022-07-22T09:36:23;8.17;;;3.50;;
980;SDS011;479;53.514;9.994;2022-07-22T09:38:53;7.67;;;4.07;;
980;SDS011;479;53.514;9.994;2022-07-22T09:41:21;7.70;;;4.80;;
980;SDS011;479;53.514;9.994;2022-07-22T09:43:49;18.70;;;15.67;;
980;SDS011;479;53.514;9.994;2022-07-22T09:46:16;15.43;;;13.60;;
980;SDS011;479;53.514;9.994;2022-07-22T09:49:05;7.50;;;3.00;;
980;SDS011;479;53.514;9.994;2022-07-22T09:51:37;5.77;;;4.10;;
980;SDS011;479;53.514;9.994;2022-07-22T09:54:34;7.93;;;3.50;;
980;SDS011;479;53.514;9.994;2022-07-22T09:57:03;4.80;;;2.13;;
980;SDS011;479;53.514;9.994;2022-07-22T09:59:30;6.10;;;2.80;;
980;SDS011;479;53.514;9.994;2022-07-22T10:02:14;4.30;;;3.47;;
980;SDS011;479;53.514;9.994;2022-07-22T10:04:43;9.10;;;3.50;;
980;SDS011;479;53.514;9.994;2022-07-22T10:07:13;10.13;;;3.53;;
980;SDS011;479;53.514;9.994;2022-07-22T10:09:41;12.50;;;3.57;;
980;SDS011;479;53.514;9.994;2022-07-22T10:12:13;3.47;;;2.80;;
980;SDS011;479;53.514;9.994;2022-07-22T10:14:42;6.90;;;3.03;;
980;SDS011;479;53.514;9.994;2022-07-22T10:17:11;3.87;;;2.20;;
980;SDS011;479;53.514;9.994;2022-07-22T10:19:39;11.10;;;8.73;;
980;SDS011;479;53.514;9.994;2022-07-22T10:22:14;8.47;;;3.60;;
980;SDS011;479;53.514;9.994;2022-07-22T10:25:13;4.43;;;4.00;;
980;SDS011;479;53.514;9.994;2022-07-22T10:27:45;14.77;;;10.70;;
980;SDS011;479;53.514;9.994;2022-07-22T10:30:13;4.57;;;2.37;;
980;SDS011;479;53.514;9.994;2022-07-22T10:32:41;4.17;;;2.70;;
980;SDS011;479;53.514;9.994;2022-07-22T10:35:24;4.10;;;3.20;;
980;SDS011;479;53.514;9.994;2022-07-22T10:37:55;4.90;;;2.30;;
980;SDS011;479;53.514;9.994;2022-07-22T10:40:25;6.70;;;5.23;;
980;SDS011;479;53.514;9.994;2022-07-22T10:45:48;7.93;;;7.10;;
980;SDS011;479;53.514;9.994;2022-07-22T10:48:18;7.83;;;3.30;;
980;SDS011;479;53.514;9.994;2022-07-22T10:50:53;5.07;;;3.07;;
980;SDS011;479;53.514;9.994;2022-07-22T10:53:39;5.60;;;3.33;;
980;SDS011;479;53.514;9.994;2022-07-22T10:56:15;7.97;;;4.20;;
980;SDS011;479;53.514;9.994;2022-07-22T11:01:37;8.50;;;7.63;;
980;SDS011;479;53.514;9.994;2022-07-22T11:04:12;6.10;;;5.50;;
980;SDS011;479;53.514;9.994;2022-07-22T11:06:41;6.70;;;2.97;;
980;SDS011;479;53.514;9.994;2022-07-22T11:09:10;10.20;;;3.40;;
980;SDS011;479;53.514;9.994;2022-07-22T11:11:39;5.17;;;2.87;;
980;SDS011;479;53.514;9.994;2022-07-22T11:14:16;6.70;;;2.90;;
980;SDS011;479;53.514;9.994;2022-07-22T11:16:45;3.30;;;2.40;;
980;SDS011;479;53.514;9.994;2022-07-22T11:19:13;6.10;;;3.13;;
980;SDS011;479;53.514;9.994;2022-07-22T11:21:40;4.17;;;2.83;;
980;SDS011;479;53.514;9.994;2022-07-22T11:24:07;5.90;;;3.20;;
980;SDS011;479;53.514;9.994;2022-07-22T11:26:39;7.93;;;5.53;;
980;SDS011;479;53.514;9.994;2022-07-22T11:29:08;4.97;;;3.20;;
980;SDS011;479;53.514;9.994;2022-07-22T11:31:37;3.10;;;2.70;;
980;SDS011;479;53.514;9.994;2022-07-22T11:34:08;4.73;;;3.53;;
980;SDS011;479;53.514;9.994;2022-07-22T11:36:37;3.53;;;3.20;;
980;SDS011;479;53.514;9.994;2022-07-22T11:39:05;5.00;;;3.33;;
980;SDS011;479;53.514;9.994;2022-07-22T11:41:33;8.70;;;3.83;;
980;SDS011;479;53.514;9.994;2022-07-22T11:44:01;4.73;;;2.80;;
980;SDS011;479;53.514;9.994;2022-07-22T11:46:33;6.30;;;4.40;;
980;SDS011;479;53.514;9.994;2022-07-22T11:49:03;5.70;;;2.73;;
980;SDS011;479;53.514;9.994;2022-07-22T11:51:31;4.50;;;2.60;;
980;SDS011;479;53.514;9.994;2022-07-22T11:53:59;4.70;;;2.70;;
980;SDS011;479;53.514;9.994;2022-07-22T11:56:26;7.63;;;2.90;;
980;SDS011;479;53.514;9.994;2022-07-22T11:58:53;3.97;;;3.00;;
980;SDS011;479;53.514;9.994;2022-07-22T12:01:22;7.53;;;3.87;;
980;SDS011;479;53.514;9.994;2022-07-22T12:03:50;4.67;;;3.10;;
980;SDS011;479;53.514;9.994;2022-07-22T12:06:21;3.53;;;2.27;;
980;SDS011;479;53.514;9.994;2022-07-22T12:08:49;4.70;;;2.70;;
980;SDS011;479;53.514;9.994;2022-07-22T12:11:18;5.77;;;3.10;;
980;SDS011;479;53.514;9.994;2022-07-22T12:13:47;6.43;;;2.87;;
980;SDS011;479;53.514;9.994;2022-07-22T12:16:16;3.40;;;2.20;;
980;SDS011;479;53.514;9.994;2022-07-22T12:18:49;5.20;;;2.83;;
980;SDS011;479;53.514;9.994;2022-07-22T12:21:22;6.30;;;3.33;;
980;SDS011;479;53.514;9.994;2022-07-22T12:23:51;5.20;;;3.40;;
980;SDS011;479;53.514;9.994;2022-07-22T12:26:19;4.80;;;3.47;;
980;SDS011;479;53.514;9.994;2022-07-22T12:29:17;4.30;;;3.50;;
980;SDS011;479;53.514;9.994;2022-07-22T12:31:46;6.20;;;3.20;;
980;SDS011;479;53.514;9.994;2022-07-22T12:34:13;6.50;;;2.50;;
980;SDS011;479;53.514;9.994;2022-07-22T12:36:46;2.80;;;2.60;;
980;SDS011;479;53.514;9.994;2022-07-22T12:39:14;3.53;;;2.30;;
980;SDS011;479;53.514;9.994;2022-07-22T12:41:46;4.17;;;2.97;;
980;SDS011;479;53.514;9.994;2022-07-22T12:44:18;5.33;;;2.67;;
980;SDS011;479;53.514;9.994;2022-07-22T12:46:47;6.23;;;3.40;;
980;SDS011;479;53.514;9.994;2022-07-22T12:49:16;4.93;;;2.57;;
980;SDS011;479;53.514;9.994;2022-07-22T12:54:36;4.90;;;3.67;;
980;SDS011;479;53.514;9.994;2022-07-22T12:57:04;8.63;;;3.60;;
980;SDS011;479;53.514;9.994;2022-07-22T12:59:31;5.23;;;2.13;;
980;SDS011;479;53.514;9.994;2022-07-22T13:01:58;2.93;;;2.43;;
980;SDS011;479;53.514;9.994;2022-07-22T13:04:25;4.53;;;2.80;;
980;SDS011;479;53.514;9.994;2022-07-22T13:06:52;4.00;;;3.07;;
980;SDS011;479;53.514;9.994;2022-07-22T13:09:20;5.07;;;2.93;;
980;SDS011;479;53.514;9.994;2022-07-22T13:11:47;4.70;;;3.17;;
980;SDS011;479;53.514;9.994;2022-07-22T13:14:14;5.30;;;2.93;;
980;SDS011;479;53.514;9.994;2022-07-22T13:16:41;5.10;;;2.60;;
980;SDS011;479;53.514;9.994;2022-07-22T13:19:08;2.23;;;2.03;;
980;SDS011;479;53.514;9.994;2022-07-22T13:21:35;3.43;;;2.47;;
980;SDS011;479;53.514;9.994;2022-07-22T13:24:02;6.40;;;3.40;;
980;SDS011;479;53.514;9.994;2022-07-22T13:26:31;3.70;;;2.90;;
980;SDS011;479;53.514;9.994;2022-07-22T13:28:58;3.80;;;3.40;;
980;SDS011;479;53.514;9.994;2022-07-22T13:31:24;2.97;;;2.63;;
980;SDS011;479;53.514;9.994;2022-07-22T13:33:52;3.57;;;2.40;;
980;SDS011;479;53.514;9.994;2022-07-22T13:36:19;3.87;;;3.23;;
980;SDS011;479;53.514;9.994;2022-07-22T13:38:48;7.83;;;3.03;;
980;SDS011;479;53.514;9.994;2022-07-22T13:41:16;8.20;;;3.47;;
980;SDS011;479;53.514;9.994;2022-07-22T13:43:45;3.43;;;2.30;;
980;SDS011;479;53.514;9.994;2022-07-22T13:46:14;4.43;;;2.90;;
980;SDS011;479;53.514;9.994;2022-07-22T13:48:41;4.93;;;2.70;;
980;SDS011;479;53.514;9.994;2022-07-22T13:51:08;10.73;;;3.40;;
980;SDS011;479;53.514;9.994;2022-07-22T13:53:35;4.20;;;3.00;;
980;SDS011;479;53.514;9.994;2022-07-22T13:56:02;6.60;;;4.20;;
980;SDS011;479;53.514;9.994;2022-07-22T13:58:29;4.63;;;3.73;;
980;SDS011;479;53.514;9.994;2022-07-22T14:00:58;7.00;;;2.87;;
980;SDS011;479;53.514;9.994;2022-07-22T14:03:25;5.30;;;4.13;;
980;SDS011;479;53.514;9.994;2022-07-22T14:05:52;2.43;;;2.20;;
980;SDS011;479;53.514;9.994;2022-07-22T14:08:19;9.40;;;8.10;;
980;SDS011;479;53.514;9.994;2022-07-22T14:10:45;8.53;;;7.67;;
980;SDS011;479;53.514;9.994;2022-07-22T14:13:12;11.13;;;9.23;;
980;SDS011;479;53.514;9.994;2022-07-22T14:15:39;4.90;;;2.67;;
980;SDS011;479;53.514;9.994;2022-07-22T14:18:07;5.90;;;2.90;;
980;SDS011;479;53.514;9.994;2022-07-22T14:20:34;6.30;;;4.67;;
980;SDS011;479;53.514;9.994;2022-07-22T14:23:02;6.23;;;3.03;;
980;SDS011;479;53.514;9.994;2022-07-22T14:25:30;4.90;;;3.13;;
980;SDS011;479;53.514;9.994;2022-07-22T14:27:57;5.63;;;3.90;;
980;SDS011;479;53.514;9.994;2022-07-22T14:30:24;5.90;;;2.90;;
980;SDS011;479;53.514;9.994;2022-07-22T14:32:53;8.20;;;2.80;;
980;SDS011;479;53.514;9.994;2022-07-22T14:35:21;3.47;;;2.83;;
980;SDS011;479;53.514;9.994;2022-07-22T14:37:48;5.60;;;2.60;;
980;SDS011;479;53.514;9.994;2022-07-22T14:40:15;4.33;;;3.63;;
980;SDS011;479;53.514;9.994;2022-07-22T14:42:42;5.13;;;3.20;;
980;SDS011;479;53.514;9.994;2022-07-22T14:45:09;8.03;;;3.40;;
980;SDS011;479;53.514;9.994;2022-07-22T14:47:36;4.50;;;2.70;;
980;SDS011;479;53.514;9.994;2022-07-22T14:50:04;5.00;;;3.40;;
980;SDS011;479;53.514;9.994;2022-07-22T14:52:33;5.73;;;3.60;;
980;SDS011;479;53.514;9.994;2022-07-22T14:55:00;10.67;;;4.07;;
980;SDS011;479;53.514;9.994;2022-07-22T14:57:27;6.17;;;2.90;;
980;SDS011;479;53.514;9.994;2022-07-22T14:59:54;3.40;;;3.10;;
980;SDS011;479;53.514;9.994;2022-07-22T15:02:21;4.87;;;2.63;;
980;SDS011;479;53.514;9.994;2022-07-22T15:04:50;4.77;;;2.77;;
980;SDS011;479;53.514;9.994;2022-07-22T15:07:17;5.10;;;3.80;;
980;SDS011;479;53.514;9.994;2022-07-22T15:09:45;4.33;;;3.10;;
980;SDS011;479;53.514;9.994;2022-07-22T15:12:12;13.37;;;9.47;;
980;SDS011;479;53.514;9.994;2022-07-22T15:14:39;4.30;;;2.67;;
980;SDS011;479;53.514;9.994;2022-07-22T15:17:05;4.10;;;3.40;;
980;SDS011;479;53.514;9.994;2022-07-22T15:19:32;5.87;;;3.30;;
980;SDS011;479;53.514;9.994;2022-07-22T15:21:59;3.23;;;2.33;;
980;SDS011;479;53.514;9.994;2022-07-22T15:24:26;3.90;;;2.90;;
980;SDS011;479;53.514;9.994;2022-07-22T15:26:55;3.63;;;2.60;;
980;SDS011;479;53.514;9.994;2022-07-22T15:29:22;3.47;;;2.97;;
980;SDS011;479;53.514;9.994;2022-07-22T15:31:49;4.57;;;3.33;;
980;SDS011;479;53.514;9.994;2022-07-22T15:34:16;5.20;;;3.30;;
980;SDS011;479;53.514;9.994;2022-07-22T15:36:44;4.07;;;3.67;;
980;SDS011;479;53.514;9.994;2022-07-22T15:39:11;2.70;;;2.50;;
980;SDS011;479;53.514;9.994;2022-07-22T15:41:38;3.40;;;2.20;;
980;SDS011;479;53.514;9.994;2022-07-22T15:44:07;6.67;;;3.40;;
980;SDS011;479;53.514;9.994;2022-07-22T15:46:34;3.67;;;3.37;;
980;SDS011;479;53.514;9.994;2022-07-22T15:49:02;4.70;;;3.23;;
980;SDS011;479;53.514;9.994;2022-07-22T15:51:29;5.97;;;2.93;;
980;SDS011;479;53.514;9.994;2022-07-22T15:53:56;4.53;;;2.33;;
980;SDS011;479;53.514;9.994;2022-07-22T15:56:23;4.00;;;2.90;;
980;SDS011;479;53.514;9.994;2022-07-22T15:58:50;8.93;;;2.80;;
980;SDS011;479;53.514;9.994;2022-07-22T16:01:36;8.63;;;3.50;;
980;SDS011;479;53.514;9.994;2022-07-22T16:04:03;2.47;;;2.27;;